Time;durP1;ratioP1;P1;durP2;ratioP2;P2;SDS_P1;SDS_P2;PMS_P1;PMS_P2;Temp;Humidity;BMP_temperature;BMP_pressure;BME280_temperature;BME280_humidity;BME280_pressure;Samples;Min_cycle;Max_cycle;Signal;HPM_P1;HPM_P2
2021/09/12 00:02:23;;;;;;;7.90;6.53;;;21.10;77.90;;;;;;5096270;28;20048;-71
2021/09/12 00:04:49;;;;;;;8.18;6.97;;;21.00;77.80;;;;;;5096804;28;20051;-71
2021/09/12 00:07:15;;;;;;;7.88;6.75;;;21.10;77.90;;;;;;5096575;28;20051;-71
2021/09/12 00:09:40;;;;;;;7.35;6.63;;;21.00;77.80;;;;;;5096566;28;20044;-71
2021/09/12 00:12:07;;;;;;;8.27;7.05;;;21.10;77.90;;;;;;5096772;28;20047;-71
2021/09/12 00:14:32;;;;;;;8.50;7.50;;;21.00;77.90;;;;;;5096239;28;20040;-71
2021/09/12 00:16:58;;;;;;;7.60;6.80;;;21.00;77.90;;;;;;5097071;28;20135;-71
2021/09/12 00:19:24;;;;;;;8.90;7.38;;;21.00;77.90;;;;;;5078101;28;20047;-71
2021/09/12 00:21:51;;;;;;;8.25;7.22;;;21.10;77.90;;;;;;5096822;28;20332;-71
2021/09/12 00:24:17;;;;;;;10.23;7.15;;;21.10;77.90;;;;;;5096317;28;20040;-71
2021/09/12 00:26:43;;;;;;;8.55;7.00;;;21.10;77.80;;;;;;5096194;28;20117;-71
2021/09/12 00:29:09;;;;;;;9.32;7.22;;;21.10;77.90;;;;;;5095617;28;20417;-71
2021/09/12 00:31:34;;;;;;;9.77;7.82;;;21.00;77.90;;;;;;5096098;28;20075;-72
2021/09/12 00:34:00;;;;;;;8.45;7.10;;;21.00;77.90;;;;;;5096607;28;20040;-71
2021/09/12 00:36:26;;;;;;;9.82;7.22;;;21.00;77.90;;;;;;5096028;28;20051;-71
2021/09/12 00:38:52;;;;;;;14.95;6.82;;;21.00;78.00;;;;;;5096031;28;20082;-71
2021/09/12 00:41:18;;;;;;;8.90;7.45;;;21.00;78.00;;;;;;5078529;28;20075;-71
2021/09/12 00:43:44;;;;;;;8.93;7.03;;;21.00;78.10;;;;;;5056324;28;1130471;-71
2021/09/12 00:46:09;;;;;;;8.25;7.10;;;21.00;78.10;;;;;;5096762;28;20213;-71
2021/09/12 00:48:36;;;;;;;8.50;6.65;;;21.00;78.10;;;;;;5097315;28;20480;-71
2021/09/12 00:51:04;;;;;;;9.07;6.97;;;21.00;78.20;;;;;;5097016;28;20063;-71
2021/09/12 00:53:33;;;;;;;8.90;6.82;;;20.90;78.10;;;;;;5096741;28;20050;-71
2021/09/12 00:56:02;;;;;;;8.20;6.80;;;20.90;78.20;;;;;;5096885;28;20044;-71
2021/09/12 00:58:29;;;;;;;8.18;7.20;;;20.90;78.20;;;;;;5096616;28;20455;-71
2021/09/12 01:00:55;;;;;;;8.77;7.28;;;20.90;78.30;;;;;;5097088;28;20101;-71
2021/09/12 01:03:21;;;;;;;7.80;6.63;;;20.90;78.30;;;;;;5096618;28;20052;-72
2021/09/12 01:05:47;;;;;;;9.82;7.15;;;20.90;78.40;;;;;;5096674;28;20417;-71
2021/09/12 01:08:13;;;;;;;9.40;6.90;;;20.90;78.40;;;;;;5097109;28;20052;-71
2021/09/12 01:10:40;;;;;;;8.10;6.53;;;20.80;78.40;;;;;;5096423;28;20408;-71
2021/09/12 01:13:06;;;;;;;10.30;7.03;;;20.80;78.40;;;;;;5095394;28;20076;-71
2021/09/12 01:15:32;;;;;;;7.50;5.80;;;20.80;78.50;;;;;;5096276;28;20078;-71
2021/09/12 01:17:58;;;;;;;8.95;6.53;;;20.80;78.50;;;;;;5096245;28;20044;-71
2021/09/12 01:20:23;;;;;;;9.07;6.25;;;20.80;78.50;;;;;;5096487;28;20040;-71
2021/09/12 01:22:50;;;;;;;7.90;5.90;;;20.80;78.60;;;;;;5096142;28;20447;-71
2021/09/12 01:25:17;;;;;;;11.95;6.45;;;20.80;78.60;;;;;;5096185;28;20141;-71
2021/09/12 01:27:43;;;;;;;7.18;5.57;;;20.80;78.70;;;;;;5095995;28;20044;-71
2021/09/12 01:30:09;;;;;;;8.55;6.00;;;20.70;78.70;;;;;;5095783;28;20043;-71
2021/09/12 01:32:35;;;;;;;8.68;5.82;;;20.70;78.70;;;;;;5095905;28;20080;-71
2021/09/12 01:35:01;;;;;;;9.70;6.18;;;20.70;78.70;;;;;;5095946;28;20047;-71
2021/09/12 01:37:26;;;;;;;7.65;5.50;;;20.70;78.70;;;;;;5096067;28;20032;-71
2021/09/12 01:39:55;;;;;;;7.53;5.30;;;20.70;78.70;;;;;;5095645;28;20052;-72
2021/09/12 01:42:21;;;;;;;8.70;5.18;;;20.70;78.80;;;;;;5096327;28;20044;-71
2021/09/12 01:44:48;;;;;;;9.35;5.35;;;20.70;78.80;;;;;;5096135;28;20040;-71
2021/09/12 01:47:15;;;;;;;8.52;5.57;;;20.70;78.80;;;;;;5096122;28;20080;-71
2021/09/12 01:49:41;;;;;;;9.57;5.50;;;20.70;78.80;;;;;;5095598;28;20050;-71
2021/09/12 01:52:11;;;;;;;9.32;5.25;;;20.70;78.80;;;;;;5095792;28;20094;-71
2021/09/12 01:54:37;;;;;;;8.25;4.97;;;20.70;78.70;;;;;;5095383;28;20079;-71
2021/09/12 01:57:04;;;;;;;8.90;5.18;;;20.60;78.70;;;;;;5096277;28;20367;-71
2021/09/12 01:59:29;;;;;;;9.93;5.38;;;20.60;78.70;;;;;;5096295;28;20124;-71
2021/09/12 02:01:55;;;;;;;9.38;5.28;;;20.60;78.80;;;;;;5095474;28;20036;-71
2021/09/12 02:04:21;;;;;;;9.65;4.47;;;20.60;78.80;;;;;;5096134;28;20040;-71
2021/09/12 02:06:47;;;;;;;7.95;4.75;;;20.60;78.80;;;;;;5095262;28;20447;-71
2021/09/12 02:09:12;;;;;;;9.80;4.80;;;20.60;78.80;;;;;;5095209;28;20040;-72
2021/09/12 02:11:38;;;;;;;8.68;4.72;;;20.60;78.80;;;;;;5094885;28;20073;-71
2021/09/12 02:14:04;;;;;;;10.13;4.53;;;20.60;78.80;;;;;;5095899;28;20040;-71
2021/09/12 02:16:29;;;;;;;7.22;4.43;;;20.60;78.80;;;;;;5095548;28;20109;-72
2021/09/12 02:18:55;;;;;;;10.18;4.95;;;20.50;78.80;;;;;;5095262;28;20048;-71
2021/09/12 02:21:21;;;;;;;7.78;4.63;;;20.60;78.90;;;;;;5095205;28;20156;-71
2021/09/12 02:23:46;;;;;;;7.93;4.20;;;20.60;79.50;;;;;;5095096;28;20145;-71
2021/09/12 02:26:12;;;;;;;7.32;4.10;;;20.50;78.90;;;;;;5095587;28;20640;-71
2021/09/12 02:28:38;;;;;;;6.47;4.10;;;20.50;78.90;;;;;;5095054;28;20036;-71
2021/09/12 02:31:04;;;;;;;7.80;4.22;;;20.50;78.90;;;;;;5095336;28;20148;-71
2021/09/12 02:33:29;;;;;;;8.05;3.83;;;20.50;78.90;;;;;;5094889;28;20050;-71
2021/09/12 02:35:55;;;;;;;8.90;4.47;;;20.60;79.00;;;;;;5094574;28;20075;-71
2021/09/12 02:38:21;;;;;;;7.45;3.90;;;20.60;79.00;;;;;;5077522;28;20044;-72
2021/09/12 02:40:46;;;;;;;8.05;3.72;;;20.50;78.90;;;;;;5095472;28;20109;-71
2021/09/12 02:43:12;;;;;;;10.07;4.40;;;20.60;78.90;;;;;;5094832;28;20040;-71
2021/09/12 02:45:38;;;;;;;7.65;4.30;;;20.50;78.90;;;;;;5095453;28;20089;-71
2021/09/12 02:48:04;;;;;;;6.72;3.65;;;20.50;78.90;;;;;;5095215;28;20053;-71
2021/09/12 02:50:30;;;;;;;8.50;4.10;;;20.50;78.90;;;;;;5094997;28;20044;-71
2021/09/12 02:52:56;;;;;;;8.27;3.92;;;20.50;78.90;;;;;;5094775;28;20347;-71
2021/09/12 02:55:22;;;;;;;5.95;3.70;;;20.50;78.90;;;;;;5077259;28;20127;-71
2021/09/12 02:57:47;;;;;;;8.00;4.32;;;20.50;78.80;;;;;;5094549;28;20447;-71
2021/09/12 03:00:13;;;;;;;7.68;3.75;;;20.40;78.80;;;;;;5094839;28;20119;-71
2021/09/12 03:02:39;;;;;;;8.68;3.70;;;20.40;78.80;;;;;;5095043;28;20055;-71
2021/09/12 03:05:06;;;;;;;7.97;3.42;;;20.40;78.90;;;;;;5094471;28;20031;-71
2021/09/12 03:07:31;;;;;;;6.45;3.60;;;20.40;78.90;;;;;;5091382;28;20075;-71
2021/09/12 03:09:57;;;;;;;8.20;4.00;;;20.40;79.00;;;;;;5095167;28;20048;-71
2021/09/12 03:12:23;;;;;;;5.93;3.47;;;20.40;78.90;;;;;;5095033;28;20054;-71
2021/09/12 03:14:49;;;;;;;9.38;3.80;;;20.40;79.00;;;;;;5094635;28;20316;-71
2021/09/12 03:17:14;;;;;;;9.35;4.15;;;20.40;79.00;;;;;;5094641;28;20047;-71
2021/09/12 03:19:40;;;;;;;6.93;3.42;;;20.40;78.90;;;;;;5094112;28;20040;-71
2021/09/12 03:22:06;;;;;;;7.88;3.22;;;20.40;79.00;;;;;;5094529;28;20039;-71
2021/09/12 03:24:32;;;;;;;6.47;2.97;;;20.40;79.00;;;;;;5094562;28;20101;-71
2021/09/12 03:26:58;;;;;;;7.25;3.40;;;20.40;79.00;;;;;;5094311;28;20055;-71
2021/09/12 03:29:23;;;;;;;6.45;3.25;;;20.40;79.00;;;;;;5094633;28;20131;-71
2021/09/12 03:31:49;;;;;;;8.05;3.30;;;20.40;79.10;;;;;;5094414;28;20346;-71
2021/09/12 03:34:15;;;;;;;8.10;3.33;;;20.40;79.10;;;;;;5094818;28;20075;-71
2021/09/12 03:36:41;;;;;;;8.98;3.20;;;20.30;79.00;;;;;;5096255;28;20036;-71
2021/09/12 03:39:07;;;;;;;5.95;2.78;;;20.40;79.10;;;;;;5098167;28;20048;-71
2021/09/12 03:41:32;;;;;;;6.57;3.10;;;20.40;79.10;;;;;;5098183;28;20128;-72
2021/09/12 03:43:58;;;;;;;8.23;2.95;;;20.30;79.10;;;;;;5097809;28;20056;-71
2021/09/12 03:46:24;;;;;;;6.75;3.10;;;20.30;79.70;;;;;;5097776;28;20047;-71
2021/09/12 03:48:49;;;;;;;8.82;3.30;;;20.30;79.00;;;;;;5098777;28;20048;-71
2021/09/12 03:51:15;;;;;;;5.15;2.75;;;20.30;79.00;;;;;;5097778;28;20354;-71
2021/09/12 03:53:41;;;;;;;8.23;2.75;;;20.30;79.00;;;;;;5080112;28;20044;-71
2021/09/12 03:56:06;;;;;;;4.25;2.95;;;20.30;79.10;;;;;;5098041;28;20397;-71
2021/09/12 03:58:32;;;;;;;8.43;3.40;;;20.30;79.00;;;;;;5098272;28;20039;-71
2021/09/12 04:00:58;;;;;;;7.30;3.20;;;20.30;79.00;;;;;;5097616;28;20062;-71
2021/09/12 04:03:23;;;;;;;7.72;2.90;;;20.30;79.00;;;;;;5097943;28;20043;-71
2021/09/12 04:05:49;;;;;;;6.68;3.15;;;20.30;79.10;;;;;;5097229;28;20120;-71
2021/09/12 04:08:15;;;;;;;7.80;2.90;;;20.30;79.10;;;;;;5097394;28;20123;-71
2021/09/12 04:10:40;;;;;;;6.88;2.63;;;20.30;79.00;;;;;;5097615;28;20054;-71
2021/09/12 04:13:06;;;;;;;7.25;3.15;;;20.30;79.00;;;;;;5097713;28;20043;-71
2021/09/12 04:15:32;;;;;;;6.35;2.53;;;20.30;79.00;;;;;;5097500;28;20044;-71
2021/09/12 04:17:58;;;;;;;7.00;2.45;;;20.30;79.00;;;;;;5097568;28;20048;-71
2021/09/12 04:20:23;;;;;;;7.22;2.90;;;20.30;79.00;;;;;;5097367;28;20122;-71
2021/09/12 04:22:49;;;;;;;8.85;3.35;;;20.30;79.00;;;;;;5097197;28;20114;-71
2021/09/12 04:25:15;;;;;;;8.10;2.97;;;20.30;79.00;;;;;;5097133;28;20047;-71
2021/09/12 04:27:40;;;;;;;6.47;2.90;;;20.30;79.10;;;;;;5080090;28;20044;-71
2021/09/12 04:30:08;;;;;;;8.18;3.15;;;20.30;79.10;;;;;;5097144;28;20050;-71
2021/09/12 04:32:34;;;;;;;7.80;2.80;;;20.30;79.10;;;;;;5097077;28;20055;-72
2021/09/12 04:34:59;;;;;;;8.18;2.97;;;20.30;79.10;;;;;;5096929;28;20354;-71
2021/09/12 04:37:25;;;;;;;6.22;2.88;;;20.30;79.10;;;;;;5096958;28;20055;-71
2021/09/12 04:39:51;;;;;;;9.25;3.00;;;20.20;79.10;;;;;;5096828;28;20432;-72
2021/09/12 04:42:17;;;;;;;8.02;3.13;;;20.20;79.10;;;;;;5097185;28;20131;-71
2021/09/12 04:44:42;;;;;;;8.73;3.40;;;20.20;79.10;;;;;;5096755;28;20123;-71
2021/09/12 04:47:08;;;;;;;6.45;2.75;;;20.20;79.10;;;;;;5096533;28;20086;-71
2021/09/12 04:49:34;;;;;;;7.82;3.05;;;20.20;79.20;;;;;;5096410;28;20090;-71
2021/09/12 04:51:59;;;;;;;7.85;3.22;;;20.20;79.20;;;;;;5096780;28;20058;-71
2021/09/12 04:54:25;;;;;;;7.25;2.58;;;20.20;79.20;;;;;;5096767;28;20431;-71
2021/09/12 04:56:51;;;;;;;7.50;3.35;;;20.20;79.10;;;;;;5097440;28;20040;-71
2021/09/12 04:59:17;;;;;;;8.40;3.15;;;20.20;79.20;;;;;;5096852;28;20108;-73
2021/09/12 05:01:42;;;;;;;9.13;3.30;;;20.20;79.20;;;;;;5097119;28;20036;-71
2021/09/12 05:04:08;;;;;;;10.80;3.17;;;20.20;79.10;;;;;;5077568;28;20043;-72
2021/09/12 05:06:34;;;;;;;7.05;3.28;;;20.20;79.20;;;;;;5096951;28;20035;-73
2021/09/12 05:08:59;;;;;;;10.23;3.47;;;20.20;79.20;;;;;;5096466;28;20070;-72
2021/09/12 05:11:25;;;;;;;10.23;3.83;;;20.10;79.20;;;;;;5096491;28;20047;-73
2021/09/12 05:13:51;;;;;;;9.05;3.65;;;20.10;79.30;;;;;;5096201;28;20036;-73
2021/09/12 05:16:16;;;;;;;8.50;5.40;;;20.10;79.40;;;;;;5095993;28;20047;-71
2021/09/12 05:18:42;;;;;;;11.77;5.47;;;20.20;78.80;;;;;;5096462;28;20109;-71
2021/09/12 05:21:08;;;;;;;16.80;6.47;;;20.20;78.20;;;;;;5096423;28;20047;-71
2021/09/12 05:23:34;;;;;;;16.27;6.68;;;20.20;77.90;;;;;;5095973;28;20047;-72
2021/09/12 05:25:59;;;;;;;18.52;6.95;;;20.20;77.70;;;;;;5096345;28;20347;-71
2021/09/12 05:28:25;;;;;;;18.52;6.20;;;20.20;77.60;;;;;;5096012;28;20039;-71
2021/09/12 05:30:51;;;;;;;12.45;6.38;;;20.10;77.70;;;;;;5096751;28;20083;-69
2021/09/12 05:33:16;;;;;;;11.35;5.65;;;20.10;77.60;;;;;;5095885;28;20105;-73
2021/09/12 05:35:42;;;;;;;16.88;6.60;;;20.10;77.70;;;;;;5095901;28;20039;-71
2021/09/12 05:38:09;;;;;;;14.88;6.65;;;20.00;77.80;;;;;;5095896;28;20032;-71
2021/09/12 05:40:34;;;;;;;15.90;6.47;;;20.00;77.70;;;;;;5095853;28;20454;-71
2021/09/12 05:43:00;;;;;;;13.13;6.35;;;19.90;77.80;;;;;;5096315;28;20075;-72
2021/09/12 05:45:26;;;;;;;11.52;6.35;;;19.90;77.90;;;;;;5095451;28;20401;-71
2021/09/12 05:47:52;;;;;;;15.68;6.68;;;19.90;77.90;;;;;;5096250;28;20048;-73
2021/09/12 05:50:18;;;;;;;11.60;6.28;;;19.90;78.00;;;;;;5095665;28;20044;-82
2021/09/12 05:52:44;;;;;;;18.27;6.85;;;19.90;78.20;;;;;;5074538;28;20040;-82
2021/09/12 05:55:09;;;;;;;13.88;6.63;;;19.90;78.50;;;;;;5072771;28;20144;-75
2021/09/12 05:57:35;;;;;;;13.45;6.22;;;19.90;78.50;;;;;;5075530;28;20036;-75
2021/09/12 06:00:02;;;;;;;13.93;7.15;;;20.00;78.50;;;;;;5075109;28;20091;-82
2021/09/12 06:02:28;;;;;;;17.02;6.13;;;20.00;78.60;;;;;;5051494;28;20047;-80
2021/09/12 06:05:03;;;;;;;12.57;6.57;;;20.00;78.50;;;;;;5077954;28;20040;-84
2021/09/12 06:07:30;;;;;;;11.18;6.05;;;20.00;79.40;;;;;;5095553;28;20043;-82
2021/09/12 06:09:59;;;;;;;13.80;7.03;;;20.10;79.20;;;;;;5061023;28;20036;-80
2021/09/12 06:12:25;;;;;;;12.98;6.10;;;20.10;79.00;;;;;;5061088;28;20358;-76
2021/09/12 06:14:51;;;;;;;16.95;6.85;;;20.20;79.10;;;;;;5061173;28;20335;-78
2021/09/12 06:17:17;;;;;;;12.30;5.95;;;20.20;79.00;;;;;;5077185;28;20032;-78
2021/09/12 06:19:43;;;;;;;15.13;6.50;;;20.20;78.90;;;;;;5077581;28;20038;-79
2021/09/12 06:22:08;;;;;;;9.93;6.05;;;20.20;78.80;;;;;;5077878;28;20048;-77
2021/09/12 06:24:34;;;;;;;12.50;6.85;;;20.30;78.90;;;;;;5078222;28;20394;-80
2021/09/12 06:27:00;;;;;;;12.63;6.32;;;20.30;78.80;;;;;;5095419;28;20069;-79
2021/09/12 06:29:27;;;;;;;14.25;6.80;;;20.30;78.80;;;;;;5060898;28;20499;-79
2021/09/12 06:31:53;;;;;;;12.35;6.50;;;20.30;78.70;;;;;;5077277;28;20188;-79
2021/09/12 06:34:19;;;;;;;12.43;6.38;;;20.40;78.70;;;;;;5095122;28;20044;-78
2021/09/12 06:36:44;;;;;;;12.18;5.88;;;20.40;78.60;;;;;;5077252;28;20048;-79
2021/09/12 06:39:11;;;;;;;12.48;6.63;;;20.40;78.70;;;;;;5094946;28;20334;-80
2021/09/12 06:41:38;;;;;;;11.07;6.90;;;20.50;78.70;;;;;;5095049;28;20120;-78
2021/09/12 06:44:04;;;;;;;12.82;6.78;;;20.40;78.40;;;;;;5060356;28;20113;-78
2021/09/12 06:46:30;;;;;;;14.00;7.18;;;20.50;78.50;;;;;;5077432;28;20186;-78
2021/09/12 06:48:56;;;;;;;13.90;7.28;;;20.50;78.40;;;;;;5077371;28;20132;-79
2021/09/12 06:51:21;;;;;;;22.85;8.40;;;20.50;78.30;;;;;;5094942;28;20051;-79
2021/09/12 06:53:47;;;;;;;11.15;7.43;;;20.50;78.30;;;;;;5095034;28;20044;-78
2021/09/12 06:56:13;;;;;;;17.98;8.48;;;20.40;78.20;;;;;;5094787;28;20040;-80
2021/09/12 06:58:39;;;;;;;17.45;8.60;;;20.40;78.30;;;;;;5094894;28;20343;-78
2021/09/12 07:01:05;;;;;;;13.50;7.60;;;20.40;78.50;;;;;;5094445;28;20113;-79
2021/09/12 07:03:31;;;;;;;15.25;7.55;;;20.40;78.60;;;;;;5059174;28;20052;-79
2021/09/12 07:05:56;;;;;;;19.08;8.63;;;20.40;78.80;;;;;;5104703;28;20044;-79
2021/09/12 07:08:22;;;;;;;14.32;7.13;;;20.40;78.70;;;;;;5097053;28;20063;-77
2021/09/12 07:10:48;;;;;;;13.27;7.63;;;20.40;78.70;;;;;;5115296;28;20047;-78
2021/09/12 07:13:13;;;;;;;13.40;8.00;;;20.40;78.70;;;;;;5098637;28;20130;-78
2021/09/12 07:15:39;;;;;;;18.50;9.32;;;20.40;78.80;;;;;;5080868;28;20131;-80
2021/09/12 07:18:05;;;;;;;15.32;8.77;;;20.30;78.80;;;;;;5080817;28;20040;-77
2021/09/12 07:20:31;;;;;;;17.23;8.90;;;20.30;78.80;;;;;;5080531;28;20350;-77
2021/09/12 07:22:57;;;;;;;12.93;7.72;;;20.30;79.10;;;;;;5098120;28;20039;-77
2021/09/12 07:25:22;;;;;;;17.38;9.40;;;20.30;79.40;;;;;;5080758;28;20039;-79
2021/09/12 07:27:48;;;;;;;17.33;7.43;;;20.40;79.80;;;;;;5080689;28;20048;-80
2021/09/12 07:30:15;;;;;;;11.90;8.05;;;20.30;79.80;;;;;;5080366;28;20040;-80
2021/09/12 07:32:44;;;;;;;16.63;8.35;;;20.30;80.10;;;;;;5080453;28;20084;-82
2021/09/12 07:35:10;;;;;;;24.40;8.48;;;20.40;80.30;;;;;;5080549;28;20052;-81
2021/09/12 07:37:36;;;;;;;14.23;8.68;;;20.40;80.30;;;;;;5098345;28;20347;-86
2021/09/12 07:40:02;;;;;;;11.98;8.45;;;20.40;80.30;;;;;;5080211;28;20039;-83
2021/09/12 07:42:31;;;;;;;13.23;8.02;;;20.40;80.50;;;;;;5063459;28;20040;-82
2021/09/12 07:45:04;;;;;;;16.02;9.13;;;20.50;80.50;;;;;;5080228;28;20048;-78
2021/09/12 07:47:33;;;;;;;14.50;8.73;;;20.50;80.50;;;;;;5080256;28;20351;-84
2021/09/12 07:49:59;;;;;;;14.90;6.93;;;20.50;80.80;;;;;;5079939;28;20359;-81
2021/09/12 07:52:24;;;;;;;11.32;7.18;;;20.50;80.60;;;;;;5079866;28;20042;-80
2021/09/12 07:54:50;;;;;;;14.77;7.90;;;20.50;80.60;;;;;;5079928;28;20047;-80
2021/09/12 07:57:16;;;;;;;13.38;8.10;;;20.50;80.60;;;;;;5080055;28;20058;-80
2021/09/12 07:59:42;;;;;;;12.63;7.25;;;20.50;80.50;;;;;;5076153;28;20040;-80
2021/09/12 08:02:07;;;;;;;11.32;7.10;;;20.60;80.70;;;;;;5067497;28;20410;-82
2021/09/12 08:04:33;;;;;;;13.32;7.60;;;20.60;80.80;;;;;;5063384;28;20027;-82
2021/09/12 08:06:59;;;;;;;14.48;6.95;;;20.60;80.80;;;;;;5081947;28;20039;-82
2021/09/12 08:09:24;;;;;;;14.55;7.38;;;20.60;80.70;;;;;;5100146;28;20122;-84
2021/09/12 08:11:50;;;;;;;10.60;7.43;;;20.60;80.70;;;;;;5083531;28;20047;-84
2021/09/12 08:14:16;;;;;;;11.90;7.22;;;20.60;80.70;;;;;;5082896;28;20485;-84
2021/09/12 08:16:41;;;;;;;9.95;7.22;;;20.60;80.70;;;;;;5083048;28;20114;-76
2021/09/12 08:19:07;;;;;;;12.13;6.03;;;20.70;80.70;;;;;;5117592;28;20042;-82
2021/09/12 08:21:33;;;;;;;11.88;6.00;;;20.70;80.40;;;;;;5083120;28;20054;-81
2021/09/12 08:23:59;;;;;;;9.43;5.65;;;20.70;80.30;;;;;;5082918;28;20107;-82
2021/09/12 08:26:24;;;;;;;10.50;5.28;;;20.70;80.10;;;;;;5099674;28;20039;-79
2021/09/12 08:28:50;;;;;;;12.43;5.65;;;20.70;80.10;;;;;;5099578;28;20181;-81
2021/09/12 08:31:16;;;;;;;8.20;3.80;;;20.70;80.00;;;;;;5079288;28;20472;-78
2021/09/12 08:33:42;;;;;;;9.60;3.92;;;20.70;79.70;;;;;;5078974;28;20036;-81
2021/09/12 08:36:08;;;;;;;10.20;4.18;;;20.70;79.50;;;;;;5078649;28;20067;-81
2021/09/12 08:38:34;;;;;;;9.35;3.85;;;20.70;79.40;;;;;;5062123;28;20028;-81
2021/09/12 08:41:00;;;;;;;7.00;2.88;;;20.70;79.50;;;;;;5062239;28;20039;-81
2021/09/12 08:43:27;;;;;;;5.15;2.60;;;20.70;79.50;;;;;;5061564;28;20417;-83
2021/09/12 08:45:53;;;;;;;4.93;2.08;;;20.70;79.80;;;;;;5078635;28;20431;-82
2021/09/12 08:48:19;;;;;;;5.18;1.70;;;20.70;78.90;;;;;;5062434;28;20024;-81
2021/09/12 08:50:46;;;;;;;6.20;1.65;;;20.70;78.50;;;;;;5078890;28;20050;-81
2021/09/12 08:53:12;;;;;;;5.35;1.83;;;20.70;78.50;;;;;;5064405;28;20120;-81
2021/09/12 08:55:38;;;;;;;4.07;1.42;;;20.70;78.50;;;;;;5117248;28;20046;-81
2021/09/12 08:58:04;;;;;;;1.73;0.98;;;20.70;78.40;;;;;;5098979;28;20507;-77
2021/09/12 09:00:31;;;;;;;6.93;1.58;;;20.70;78.30;;;;;;5097037;28;20043;-78
2021/09/12 09:03:03;;;;;;;2.55;1.23;;;20.70;78.40;;;;;;5096658;28;20093;-79
2021/09/12 09:05:37;;;;;;;7.10;1.92;;;20.80;78.50;;;;;;5102738;28;20032;-76
2021/09/12 09:08:08;;;;;;;6.32;1.67;;;20.80;78.50;;;;;;5116537;28;20039;-79
2021/09/12 09:10:48;;;;;;;6.95;1.67;;;20.80;78.50;;;;;;5098985;28;20040;-79
2021/09/12 09:13:37;;;;;;;4.50;1.10;;;20.80;78.40;;;;;;5116508;28;20073;-80
2021/09/12 09:16:23;;;;;;;5.00;1.13;;;20.90;78.20;;;;;;5098968;28;20039;-78
2021/09/12 09:18:59;;;;;;;5.47;1.30;;;20.90;78.00;;;;;;5098953;28;20404;-79
2021/09/12 09:21:28;;;;;;;4.63;1.20;;;20.90;77.40;;;;;;5116756;28;20028;-76
2021/09/12 09:24:25;;;;;;;5.50;1.05;;;20.90;77.30;;;;;;5098549;28;20559;-78
2021/09/12 09:27:04;;;;;;;4.32;0.93;;;20.90;77.00;;;;;;5098428;28;20053;-77
2021/09/12 09:29:31;;;;;;;4.45;0.80;;;20.90;77.30;;;;;;5105266;28;20438;-78
2021/09/12 09:32:05;;;;;;;6.47;1.38;;;20.90;77.00;;;;;;5095787;28;20447;-77
2021/09/12 09:34:32;;;;;;;4.53;0.98;;;20.90;76.80;;;;;;5095487;28;20063;-78
2021/09/12 09:37:12;;;;;;;5.45;1.33;;;20.90;76.60;;;;;;5078189;28;20063;-75
2021/09/12 09:39:45;;;;;;;4.28;1.15;;;20.90;76.00;;;;;;5095413;28;20054;-77
2021/09/12 09:42:34;;;;;;;6.45;1.25;;;20.90;76.00;;;;;;5078204;28;20071;-69
2021/09/12 09:45:01;;;;;;;9.40;1.30;;;20.90;76.10;;;;;;5095630;28;20051;-72
2021/09/12 09:47:28;;;;;;;6.55;1.52;;;20.90;76.20;;;;;;5096181;28;20470;-73
2021/09/12 09:50:03;;;;;;;8.70;1.08;;;20.90;76.50;;;;;;5077868;28;20055;-73
2021/09/12 09:52:31;;;;;;;4.72;1.02;;;20.90;76.90;;;;;;5095699;28;20044;-71
2021/09/12 09:54:58;;;;;;;3.90;1.00;;;20.90;76.90;;;;;;5094979;28;20047;-73
2021/09/12 09:57:25;;;;;;;5.35;1.13;;;21.00;77.10;;;;;;5096076;28;20047;-71
2021/09/12 09:59:52;;;;;;;7.50;1.10;;;21.00;77.30;;;;;;5095960;28;20090;-71
2021/09/12 10:02:19;;;;;;;3.22;0.93;;;21.00;77.40;;;;;;5077835;28;20393;-72
2021/09/12 10:04:45;;;;;;;2.72;0.98;;;21.00;77.50;;;;;;5096110;28;20378;-71
2021/09/12 10:07:12;;;;;;;5.72;1.20;;;21.00;77.50;;;;;;5095203;28;20043;-71
2021/09/12 10:09:38;;;;;;;3.72;0.73;;;21.00;77.60;;;;;;5095591;28;20044;-71
2021/09/12 10:12:08;;;;;;;3.47;0.75;;;21.00;77.70;;;;;;5077749;28;20048;-71
2021/09/12 10:14:46;;;;;;;2.22;0.73;;;21.00;78.30;;;;;;5095622;28;20044;-71
2021/09/12 10:17:14;;;;;;;1.67;0.98;;;21.00;77.80;;;;;;5095853;28;20036;-72
2021/09/12 10:19:42;;;;;;;3.75;0.82;;;21.00;77.80;;;;;;5095042;28;20144;-72
2021/09/12 10:22:14;;;;;;;3.38;0.77;;;21.00;77.80;;;;;;5095577;28;20046;-71
2021/09/12 10:25:01;;;;;;;4.53;0.88;;;21.00;77.80;;;;;;5095600;28;20040;-72
2021/09/12 10:27:38;;;;;;;4.88;1.10;;;21.10;77.80;;;;;;5095580;28;20039;-71
2021/09/12 10:30:25;;;;;;;6.93;1.15;;;21.10;78.00;;;;;;5095372;28;20682;-71
2021/09/12 10:33:13;;;;;;;4.30;0.80;;;21.10;78.20;;;;;;5094699;28;20051;-71
2021/09/12 10:35:50;;;;;;;6.75;0.95;;;21.10;78.40;;;;;;5094519;28;20050;-72
2021/09/12 10:38:26;;;;;;;1.98;0.70;;;21.10;78.10;;;;;;5095002;28;20097;-71
2021/09/12 10:40:53;;;;;;;6.28;1.05;;;21.10;78.00;;;;;;5095055;28;20135;-73
2021/09/12 10:43:25;;;;;;;7.13;1.27;;;21.10;78.40;;;;;;5076930;28;20363;-69
2021/09/12 10:46:05;;;;;;;5.45;1.08;;;21.10;78.10;;;;;;5097716;28;20416;-74
2021/09/12 10:48:33;;;;;;;9.27;1.42;;;21.10;77.10;;;;;;5099344;28;20055;-75
2021/09/12 10:51:01;;;;;;;11.55;1.27;;;21.10;78.50;;;;;;5081370;28;20462;-75
2021/09/12 10:53:45;;;;;;;6.30;1.15;;;21.20;78.00;;;;;;5098951;28;20502;-72
2021/09/12 10:56:10;;;;;;;;;;;21.20;77.70;;;;;;5099521;28;20048;-72
2021/09/12 10:58:36;;;;;;;6.65;0.88;;;21.20;77.80;;;;;;5099533;28;20275;-72
2021/09/12 11:01:05;;;;;;;10.75;1.13;;;21.20;77.90;;;;;;5099156;28;20403;-72
2021/09/12 11:03:32;;;;;;;5.43;0.98;;;21.20;77.80;;;;;;5077609;28;20115;-72
2021/09/12 11:05:58;;;;;;;4.18;0.93;;;21.20;77.80;;;;;;5078579;28;20072;-72
2021/09/12 11:08:37;;;;;;;4.65;1.27;;;21.10;77.80;;;;;;5079350;28;20327;-71
2021/09/12 11:11:04;;;;;;;6.55;1.15;;;21.20;77.70;;;;;;5078788;28;20048;-71
2021/09/12 11:13:30;;;;;;;3.20;0.77;;;21.20;77.80;;;;;;5078543;28;20102;-73
2021/09/12 11:16:06;;;;;;;5.10;0.90;;;21.20;77.80;;;;;;5079001;28;20439;-71
2021/09/12 11:18:49;;;;;;;4.20;1.00;;;21.20;77.70;;;;;;5078458;28;20040;-72
2021/09/12 11:21:35;;;;;;;5.10;1.23;;;21.20;77.70;;;;;;5078709;28;20084;-72
2021/09/12 11:24:04;;;;;;;4.72;0.82;;;21.20;77.70;;;;;;5078424;28;20046;-71
2021/09/12 11:26:49;;;;;;;5.45;0.80;;;21.20;77.70;;;;;;5078670;28;20059;-71
2021/09/12 11:29:22;;;;;;;4.80;0.90;;;21.20;77.60;;;;;;5078378;28;20075;-71
2021/09/12 11:32:03;;;;;;;4.30;0.65;;;21.20;77.70;;;;;;5080197;28;20048;-72
2021/09/12 11:34:29;;;;;;;4.57;0.80;;;21.20;77.70;;;;;;5097815;28;20069;-72
2021/09/12 11:36:56;;;;;;;4.13;1.02;;;21.20;77.70;;;;;;5098917;28;20109;-71
2021/09/12 11:39:25;;;;;;;3.13;0.80;;;21.20;77.70;;;;;;5098527;28;20343;-72
2021/09/12 11:41:53;;;;;;;2.03;0.70;;;21.20;77.60;;;;;;5098333;28;20043;-71
2021/09/12 11:44:19;;;;;;;2.92;0.88;;;21.30;77.70;;;;;;5080344;28;20463;-73
2021/09/12 11:46:49;;;;;;;3.33;0.77;;;21.30;77.70;;;;;;5098565;28;20054;-73
2021/09/12 11:49:16;;;;;;;1.90;0.82;;;21.30;77.70;;;;;;5098243;28;20044;-71
2021/09/12 11:51:47;;;;;;;2.70;0.60;;;21.30;77.60;;;;;;5080332;28;20185;-72
2021/09/12 11:54:24;;;;;;;3.05;0.60;;;21.30;77.60;;;;;;5097901;28;20435;-72
2021/09/12 11:57:17;;;;;;;1.60;0.47;;;21.30;77.50;;;;;;5097504;28;20443;-72
2021/09/12 11:59:45;;;;;;;2.38;0.90;;;21.30;77.40;;;;;;5076251;28;20056;-72
2021/09/12 12:02:13;;;;;;;3.95;1.20;;;21.30;77.60;;;;;;5079949;28;20043;-71
2021/09/12 12:04:42;;;;;;;2.90;0.55;;;21.30;77.60;;;;;;5080758;28;20137;-72
2021/09/12 12:07:07;;;;;;;2.72;0.73;;;21.30;77.60;;;;;;5098014;28;20119;-72
2021/09/12 12:09:39;;;;;;;5.38;1.05;;;21.30;77.60;;;;;;5097904;28;20432;-72
2021/09/12 12:12:09;;;;;;;4.28;0.70;;;21.30;77.60;;;;;;5097872;28;20074;-72
2021/09/12 12:14:44;;;;;;;1.63;0.63;;;21.30;77.60;;;;;;5097620;28;20332;-72
2021/09/12 12:17:17;;;;;;;4.07;0.90;;;21.30;77.50;;;;;;5097790;28;20031;-72
2021/09/12 12:19:43;;;;;;;2.20;0.60;;;21.30;78.10;;;;;;5097880;28;20040;-72
2021/09/12 12:22:09;;;;;;;2.75;0.80;;;21.30;77.50;;;;;;5097747;28;20048;-71
2021/09/12 12:24:38;;;;;;;2.30;0.52;;;21.30;77.50;;;;;;5097822;28;20308;-72
2021/09/12 12:27:10;;;;;;;2.85;0.82;;;21.30;77.60;;;;;;5097528;28;20040;-72
2021/09/12 12:29:37;;;;;;;2.13;0.60;;;21.30;77.50;;;;;;5079870;28;20040;-72
2021/09/12 12:32:05;;;;;;;1.52;0.70;;;21.30;77.50;;;;;;5079573;28;20047;-73
2021/09/12 12:34:59;;;;;;;2.40;0.70;;;21.30;77.50;;;;;;5097375;28;20077;-73
2021/09/12 12:37:42;;;;;;;2.85;0.80;;;21.30;77.30;;;;;;5076506;28;20102;-71
2021/09/12 12:40:10;;;;;;;;;;;21.30;77.40;;;;;;5098144;28;20109;-71
2021/09/12 12:42:43;;;;;;;1.58;0.75;;;21.30;77.30;;;;;;5097731;28;19923;-72
2021/09/12 12:45:25;;;;;;;3.55;1.02;;;21.30;77.40;;;;;;5097203;28;20059;-72
2021/09/12 12:48:17;;;;;;;1.83;0.75;;;21.30;77.30;;;;;;5097975;28;20340;-72
2021/09/12 12:50:46;;;;;;;2.70;1.08;;;21.30;77.30;;;;;;5097149;28;20080;-71